Time;durP1;ratioP1;P1;durP2;ratioP2;P2;SDS_P1;SDS_P2;PMS_P1;PMS_P2;Temp;Humidity;BMP_temperature;BMP_pressure;BME280_temperature;BME280_humidity;BME280_pressure;Samples;Min_cycle;Max_cycle;Signal;HPM_P1;HPM_P2
2023/10/16 00:03:41;;;;;;;;;;;;;;;22.01;40.17;96219.91;10428250;28;2597;-59
2023/10/16 00:08:47;;;;;;;;;;;;;;;21.97;40.36;96217.00;10420735;28;5117;-57
2023/10/16 00:13:50;;;;;;;;;;;;;;;21.99;40.10;96225.44;10427243;28;2544;-60
2023/10/16 00:18:52;;;;;;;;;;;;;;;21.98;40.27;96213.31;10425555;28;2551;-60
2023/10/16 00:23:54;;;;;;;;;;;;;;;21.97;40.29;96214.34;10429992;28;2563;-60
2023/10/16 00:29:08;;;;;;;;;;;;;;;21.97;40.27;96209.09;10429586;28;2552;-59
2023/10/16 00:34:08;;;;;;;;;;;;;;;21.96;40.26;96209.34;10427093;28;2677;-59
2023/10/16 00:39:15;;;;;;;;;;;;;;;21.97;40.20;96200.41;10422904;28;2568;-60
2023/10/16 00:44:17;;;;;;;;;;;;;;;21.94;40.07;96199.09;10428221;28;2550;-59
2023/10/16 00:49:18;;;;;;;;;;;;;;;21.94;39.74;96198.28;10420748;28;2610;-60
2023/10/16 00:54:26;;;;;;;;;;;;;;;21.93;40.23;96178.25;10425541;28;2610;-60
2023/10/16 00:59:27;;;;;;;;;;;;;;;21.92;40.10;96182.72;10438640;28;2662;-60
2023/10/16 01:04:29;;;;;;;;;;;;;;;21.91;40.14;96183.00;10423610;28;2730;-60
2023/10/16 01:09:33;;;;;;;;;;;;;;;21.90;40.16;96178.78;10427929;28;5066;-60
2023/10/16 01:14:35;;;;;;;;;;;;;;;21.91;40.30;96175.09;10426874;28;2823;-59
2023/10/16 01:19:36;;;;;;;;;;;;;;;21.87;40.04;96172.19;10426266;28;2788;-60
2023/10/16 01:24:43;;;;;;;;;;;;;;;21.87;40.06;96169.53;10427825;28;2886;-59
2023/10/16 01:29:43;;;;;;;;;;;;;;;21.87;40.17;96172.19;10425014;28;2592;-60
2023/10/16 01:34:46;;;;;;;;;;;;;;;21.84;39.79;96160.31;10425715;28;2571;-59
2023/10/16 01:39:49;;;;;;;;;;;;;;;21.85;40.03;96166.38;10425655;28;2642;-60
2023/10/16 01:44:52;;;;;;;;;;;;;;;21.82;39.92;96167.72;10435347;28;2516;-58
2023/10/16 01:49:54;;;;;;;;;;;;;;;21.82;39.86;96157.16;10435395;28;2578;-59
2023/10/16 01:54:57;;;;;;;;;;;;;;;21.80;39.61;96167.16;10435032;28;2829;-59
2023/10/16 01:59:57;;;;;;;;;;;;;;;21.78;39.88;96156.09;10437192;28;2631;-59
2023/10/16 02:04:58;;;;;;;;;;;;;;;21.80;39.73;96155.84;10433886;28;2634;-59
2023/10/16 02:09:58;;;;;;;;;;;;;;;21.78;39.88;96160.59;10430370;28;5091;-58
2023/10/16 02:15:05;;;;;;;;;;;;;;;21.76;39.91;96146.88;10438687;28;2627;-59
2023/10/16 02:20:11;;;;;;;;;;;;;;;21.76;39.94;96158.22;10437154;28;2520;-59
2023/10/16 02:25:11;;;;;;;;;;;;;;;21.74;39.68;96141.09;10432025;28;2626;-59
2023/10/16 02:35:21;;;;;;;;;;;;;;;21.71;39.39;96134.50;10429969;28;2680;-59
2023/10/16 02:40:25;;;;;;;;;;;;;;;21.71;39.34;96128.44;10431769;28;2675;-59
2023/10/16 02:45:25;;;;;;;;;;;;;;;21.70;39.38;96126.88;10432659;28;2543;-59
2023/10/16 02:50:26;;;;;;;;;;;;;;;21.69;39.71;96125.28;10429622;28;2629;-59
2023/10/16 02:55:26;;;;;;;;;;;;;;;21.67;39.63;96119.47;10435786;28;2596;-59
2023/10/16 03:00:34;;;;;;;;;;;;;;;21.67;39.42;96122.91;10425057;28;2655;-60
2023/10/16 03:05:34;;;;;;;;;;;;;;;21.65;39.69;96124.22;10431975;28;2658;-60
2023/10/16 03:10:36;;;;;;;;;;;;;;;21.65;39.22;96117.13;10430977;28;2676;-60
2023/10/16 03:15:46;;;;;;;;;;;;;;;21.64;39.26;96122.63;10436313;28;2586;-59
2023/10/16 03:20:46;;;;;;;;;;;;;;;21.62;39.26;96122.91;10429301;28;2793;-60
2023/10/16 03:25:59;;;;;;;;;;;;;;;21.62;39.50;96124.75;10434209;28;2672;-59
2023/10/16 03:30:59;;;;;;;;;;;;;;;21.61;39.34;96131.13;10433145;28;2547;-59
2023/10/16 03:36:02;;;;;;;;;;;;;;;21.59;39.13;96128.75;10430474;28;2668;-59
2023/10/16 03:41:19;;;;;;;;;;;;;;;21.58;39.27;96129.00;10433150;28;2622;-59
2023/10/16 03:46:19;;;;;;;;;;;;;;;21.57;38.97;96128.25;10426729;28;2698;-60
2023/10/16 03:51:21;;;;;;;;;;;;;;;21.56;39.42;96123.22;10427574;28;2729;-60
2023/10/16 03:56:21;;;;;;;;;;;;;;;21.54;39.24;96118.22;10430146;28;2589;-60
2023/10/16 04:01:27;;;;;;;;;;;;;;;21.53;38.87;96116.66;10432003;28;2656;-59
2023/10/16 04:06:27;;;;;;;;;;;;;;;21.53;38.90;96118.50;10425691;28;2641;-60
2023/10/16 04:11:32;;;;;;;;;;;;;;;21.51;38.86;96112.69;10432437;28;5097;-60
2023/10/16 04:16:53;;;;;;;;;;;;;;;21.49;38.81;96107.69;10433540;28;2636;-59
2023/10/16 04:22:28;;;;;;;;;;;;;;;21.49;38.87;96099.00;10430296;28;2659;-60
2023/10/16 04:37:31;;;;;;;;;;;;;;;21.45;38.98;96082.91;10428310;28;2590;-60
2023/10/16 04:58:27;;;;;;;;;;;;;;;21.40;39.18;96066.31;10427657;28;2581;-56
2023/10/16 05:03:25;;;;;;;;;;;;;;;21.39;38.93;96068.16;10425017;28;2665;-60
2023/10/16 05:08:38;;;;;;;;;;;;;;;21.39;38.72;96067.38;10426378;28;5113;-60
2023/10/16 05:18:51;;;;;;;;;;;;;;;21.37;38.75;96067.63;10433941;28;2640;-60
2023/10/16 06:17:28;;;;;;;;;;;;;;;21.26;38.55;96073.25;10433814;28;2536;-60
2023/10/16 06:22:28;;;;;;;;;;;;;;;21.24;38.60;96076.16;10435985;28;2667;-60
2023/10/16 06:27:33;;;;;;;;;;;;;;;21.25;39.03;96074.28;10432757;28;2579;-60
2023/10/16 06:32:36;;;;;;;;;;;;;;;21.26;38.98;96078.50;10431146;28;2595;-60
2023/10/16 06:37:38;;;;;;;;;;;;;;;21.28;38.96;96081.66;10427654;28;2579;-59
2023/10/16 06:42:45;;;;;;;;;;;;;;;21.25;38.93;96076.91;10427611;28;2592;-60
2023/10/16 06:47:48;;;;;;;;;;;;;;;21.28;38.57;96073.75;10428210;28;2815;-58
2023/10/16 06:52:49;;;;;;;;;;;;;;;21.31;38.78;96079.28;10428410;28;2536;-60
2023/10/16 06:57:49;;;;;;;;;;;;;;;21.34;38.78;96080.59;10435176;28;2817;-60
2023/10/16 07:02:55;;;;;;;;;;;;;;;21.37;38.67;96082.69;10428771;28;2599;-59
2023/10/16 07:07:59;;;;;;;;;;;;;;;21.41;38.70;96087.13;10428774;28;5133;-60
2023/10/16 07:13:00;;;;;;;;;;;;;;;21.46;38.66;96091.59;10429980;28;2730;-59
2023/10/16 07:18:04;;;;;;;;;;;;;;;21.49;38.49;96083.16;10426446;28;2610;-59
2023/10/16 07:23:10;;;;;;;;;;;;;;;21.52;38.54;96086.03;10421456;28;2625;-59
2023/10/16 07:28:10;;;;;;;;;;;;;;;21.55;38.45;96090.78;10422090;28;2696;-58
2023/10/16 07:33:17;;;;;;;;;;;;;;;21.58;38.54;96092.06;10426015;28;2582;-60
2023/10/16 07:38:21;;;;;;;;;;;;;;;21.52;38.88;96082.59;10426025;28;2607;-59
2023/10/16 07:43:28;;;;;;;;;;;;;;;21.20;37.65;96090.13;10428940;28;2690;-59
2023/10/16 07:48:28;;;;;;;;;;;;;;;21.20;37.54;96079.59;10421431;28;2617;-59
2023/10/16 07:53:28;;;;;;;;;;;;;;;21.25;37.87;96076.91;10420332;28;2704;-57
2023/10/16 07:58:33;;;;;;;;;;;;;;;21.30;38.14;96088.25;10419320;28;2601;-59
2023/10/16 08:03:36;;;;;;;;;;;;;;;21.34;38.25;96086.66;10420447;28;2567;-59
2023/10/16 08:08:36;;;;;;;;;;;;;;;21.38;38.46;96086.91;10414888;28;4451;-59
2023/10/16 08:13:38;;;;;;;;;;;;;;;21.40;38.60;96082.94;10424395;28;2565;-59
2023/10/16 08:18:40;;;;;;;;;;;;;;;21.42;38.67;96083.44;10418880;28;2881;-59
2023/10/16 08:23:45;;;;;;;;;;;;;;;21.45;38.76;96077.63;10419566;28;3344;-59
2023/10/16 08:28:46;;;;;;;;;;;;;;;21.46;38.57;96073.16;10421605;28;2600;-59
2023/10/16 08:33:46;;;;;;;;;;;;;;;21.48;38.49;96078.94;10419375;28;2626;-59
2023/10/16 08:38:52;;;;;;;;;;;;;;;21.50;38.60;96082.09;10414869;28;2576;-58
2023/10/16 08:43:53;;;;;;;;;;;;;;;21.50;38.76;96074.19;10423136;28;2640;-59
2023/10/16 08:48:57;;;;;;;;;;;;;;;21.51;38.94;96067.84;10414292;28;2683;-58
2023/10/16 08:54:02;;;;;;;;;;;;;;;21.52;39.02;96066.78;10419817;28;2683;-58
2023/10/16 08:59:04;;;;;;;;;;;;;;;21.53;38.68;96069.16;10417580;28;2804;-58
2023/10/16 09:04:05;;;;;;;;;;;;;;;21.54;38.66;96069.94;10418864;28;2615;-58
2023/10/16 09:09:16;;;;;;;;;;;;;;;21.54;39.04;96065.47;10419282;28;4691;-59
2023/10/16 09:14:20;;;;;;;;;;;;;;;21.53;39.16;96055.97;10418488;28;2666;-58
2023/10/16 09:20:12;;;;;;;;;;;;;;;21.53;39.36;96063.91;10424987;28;2627;-58
2023/10/16 09:24:51;;;;;;;;;;;;;;;21.53;39.09;96057.81;10411916;28;2578;-58
2023/10/16 09:29:54;;;;;;;;;;;;;;;21.52;39.46;96056.22;10416318;28;2607;-58
2023/10/16 09:34:58;;;;;;;;;;;;;;;21.53;39.21;96047.28;10417356;28;2680;-58
2023/10/16 09:40:01;;;;;;;;;;;;;;;21.53;39.44;96049.91;10418907;28;2664;-58
2023/10/16 09:45:09;;;;;;;;;;;;;;;21.52;39.61;96045.69;10413892;28;2637;-58
2023/10/16 09:50:21;;;;;;;;;;;;;;;21.52;39.51;96035.13;10418511;28;2616;-58
2023/10/16 09:55:22;;;;;;;;;;;;;;;21.53;39.46;96047.28;10414344;28;2813;-58
2023/10/16 10:05:34;;;;;;;;;;;;;;;21.50;39.43;96048.59;10422812;28;2651;-58
2023/10/16 10:15:37;;;;;;;;;;;;;;;21.52;39.37;96045.69;10429225;28;2628;-58
2023/10/16 10:20:41;;;;;;;;;;;;;;;21.54;39.44;96040.91;10428169;28;2713;-57
2023/10/16 10:25:41;;;;;;;;;;;;;;;21.56;39.44;96034.31;10431006;28;2597;-57
2023/10/16 10:30:45;;;;;;;;;;;;;;;21.57;40.18;96037.75;10435225;28;2568;-61
2023/10/16 10:35:47;;;;;;;;;;;;;;;21.60;40.46;96032.72;10431094;28;2723;-61
2023/10/16 10:41:11;;;;;;;;;;;;;;;21.62;40.60;96024.50;10428443;28;2580;-60
2023/10/16 10:46:11;;;;;;;;;;;;;;;21.63;40.66;96023.47;10420270;28;2571;-59
2023/10/16 10:51:14;;;;;;;;;;;;;;;21.63;40.72;96011.06;10423614;28;2622;-58
2023/10/16 10:56:14;;;;;;;;;;;;;;;21.64;41.11;96007.34;10429959;28;2755;-58
2023/10/16 11:01:27;;;;;;;;;;;;;;;21.63;40.54;95995.25;10427896;28;2666;-59
2023/10/16 11:06:43;;;;;;;;;;;;;;;21.60;40.56;95989.72;10428205;28;2626;-59
2023/10/16 11:11:47;;;;;;;;;;;;;;;21.60;40.61;95992.34;10430594;28;4589;-59
2023/10/16 11:16:48;;;;;;;;;;;;;;;21.59;40.38;95980.22;10423452;28;2645;-60
2023/10/16 11:21:49;;;;;;;;;;;;;;;21.59;40.47;95972.31;10418843;28;2667;-59
2023/10/16 11:26:50;;;;;;;;;;;;;;;21.58;40.48;95970.72;10424617;28;2606;-59
2023/10/16 11:31:53;;;;;;;;;;;;;;;21.57;40.49;95963.91;10426712;28;2567;-59
2023/10/16 11:36:53;;;;;;;;;;;;;;;21.55;40.33;95956.25;10426569;28;2539;-59
2023/10/16 11:41:54;;;;;;;;;;;;;;;21.54;40.32;95957.31;10425310;28;2558;-59
2023/10/16 11:46:55;;;;;;;;;;;;;;;21.53;40.44;95947.03;10426190;28;2630;-59
2023/10/16 11:52:08;;;;;;;;;;;;;;;21.52;40.64;95946.25;10428472;28;2703;-58
2023/10/16 11:57:13;;;;;;;;;;;;;;;21.52;40.44;95940.97;10428235;28;2563;-59
2023/10/16 12:02:14;;;;;;;;;;;;;;;21.52;40.20;95943.59;10419352;28;2547;-58
2023/10/16 12:07:14;;;;;;;;;;;;;;;21.53;40.38;95942.56;10425265;28;4606;-58
2023/10/16 12:12:22;;;;;;;;;;;;;;;21.53;39.97;95936.50;10423456;28;2620;-58
2023/10/16 12:17:24;;;;;;;;;;;;;;;21.53;40.31;95936.50;10428050;28;2925;-58
2023/10/16 12:22:24;;;;;;;;;;;;;;;21.54;40.22;95927.50;10423682;28;2630;-59
2023/10/16 12:27:25;;;;;;;;;;;;;;;21.52;40.55;95911.16;10425915;28;2689;-58
2023/10/16 12:32:25;;;;;;;;;;;;;;;21.55;40.02;95906.16;10420373;28;2565;-59
2023/10/16 12:37:25;;;;;;;;;;;;;;;21.58;40.40;95910.06;10419705;28;2823;-59
2023/10/16 12:42:26;;;;;;;;;;;;;;;21.61;40.52;95901.59;10425878;28;2575;-59
2023/10/16 12:47:26;;;;;;;;;;;;;;;21.62;40.48;95898.69;10410822;28;2649;-59
2023/10/16 12:52:29;;;;;;;;;;;;;;;21.67;40.08;95884.66;10424466;28;2670;-59
2023/10/16 12:57:30;;;;;;;;;;;;;;;21.68;40.05;95887.03;10427969;28;2555;-59
2023/10/16 13:02:30;;;;;;;;;;;;;;;21.72;39.76;95876.72;10421877;28;2613;-59
2023/10/16 13:07:30;;;;;;;;;;;;;;;21.77;40.09;95879.31;10423440;28;2535;-59
2023/10/16 13:12:31;;;;;;;;;;;;;;;21.79;40.13;95870.06;10408901;28;2686;-60
2023/10/16 13:17:31;;;;;;;;;;;;;;;21.84;39.71;95866.63;10422369;28;2596;-59
2023/10/16 13:22:32;;;;;;;;;;;;;;;21.83;38.36;95867.66;10420233;28;2621;-59
2023/10/16 13:27:32;;;;;;;;;;;;;;;21.86;38.91;95869.75;10421430;28;2599;-61
2023/10/16 13:32:32;;;;;;;;;;;;;;;21.95;39.16;95862.78;10421849;28;2601;-58
2023/10/16 13:37:33;;;;;;;;;;;;;;;22.05;39.01;95857.41;10427551;28;2671;-59
2023/10/16 13:42:34;;;;;;;;;;;;;;;22.06;39.05;95847.66;10424890;28;2641;-59
2023/10/16 13:47:36;;;;;;;;;;;;;;;22.06;38.86;95845.78;10426950;28;2651;-59
2023/10/16 13:52:36;;;;;;;;;;;;;;;22.04;38.94;95837.38;10426756;28;2592;-59
2023/10/16 13:57:38;;;;;;;;;;;;;;;22.03;38.73;95830.50;10413822;28;2538;-58
2023/10/16 14:02:40;;;;;;;;;;;;;;;22.03;38.53;95822.59;10425571;28;2610;-59
2023/10/16 14:07:43;;;;;;;;;;;;;;;22.05;38.49;95833.66;10427826;28;4677;-59
2023/10/16 14:12:44;;;;;;;;;;;;;;;22.04;38.69;95824.19;10426683;28;2672;-59
2023/10/16 14:17:47;;;;;;;;;;;;;;;22.06;38.44;95829.16;10433100;28;2551;-59
2023/10/16 14:22:51;;;;;;;;;;;;;;;22.07;38.65;95823.59;10427561;28;2653;-60
2023/10/16 14:27:55;;;;;;;;;;;;;;;22.11;38.81;95827.28;10421458;28;2731;-59
2023/10/16 14:32:55;;;;;;;;;;;;;;;22.12;38.86;95818.28;10429352;28;2535;-60
2023/10/16 14:37:55;;;;;;;;;;;;;;;22.16;38.81;95818.50;10429597;28;2579;-60
2023/10/16 14:42:55;;;;;;;;;;;;;;;22.17;38.52;95815.59;10426611;28;2632;-60
2023/10/16 14:47:56;;;;;;;;;;;;;;;22.19;38.82;95804.75;10419490;28;2527;-60
2023/10/16 14:52:56;;;;;;;;;;;;;;;22.19;38.86;95805.53;10427111;28;2548;-60
2023/10/16 14:57:57;;;;;;;;;;;;;;;22.19;38.66;95797.63;10429327;28;2900;-58
2023/10/16 15:02:58;;;;;;;;;;;;;;;22.21;38.81;95798.13;10424180;28;2648;-59
2023/10/16 15:07:58;;;;;;;;;;;;;;;22.22;38.81;95790.97;10424016;28;4510;-58
2023/10/16 15:12:59;;;;;;;;;;;;;;;22.24;38.95;95789.63;10428176;28;2625;-60
2023/10/16 15:17:59;;;;;;;;;;;;;;;22.26;38.85;95797.25;10430294;28;2540;-59
2023/10/16 15:23:00;;;;;;;;;;;;;;;22.29;39.04;95797.50;10424642;28;2615;-60
2023/10/16 15:28:01;;;;;;;;;;;;;;;22.27;38.92;95799.63;10427502;28;2634;-59
2023/10/16 15:33:02;;;;;;;;;;;;;;;22.29;38.79;95794.84;10425982;28;2782;-60
2023/10/16 15:38:02;;;;;;;;;;;;;;;22.33;38.93;95795.84;10427876;28;2626;-59
2023/10/16 15:43:03;;;;;;;;;;;;;;;22.35;38.93;95796.34;10426595;28;2830;-60
2023/10/16 15:48:05;;;;;;;;;;;;;;;22.30;39.29;95798.25;10424461;28;2599;-60
2023/10/16 15:53:06;;;;;;;;;;;;;;;22.31;38.92;95802.47;10428821;28;2789;-59
2023/10/16 15:58:06;;;;;;;;;;;;;;;22.29;38.90;95805.41;10421495;28;2602;-59
2023/10/16 16:03:08;;;;;;;;;;;;;;;22.28;38.85;95810.94;10422488;28;2571;-60
2023/10/16 16:08:09;;;;;;;;;;;;;;;22.32;39.02;95811.97;10423055;28;4712;-59
2023/10/16 16:13:09;;;;;;;;;;;;;;;22.30;38.55;95817.53;10425915;28;2612;-59
2023/10/16 16:18:11;;;;;;;;;;;;;;;22.29;38.97;95817.81;10424929;28;2820;-59
2023/10/16 16:23:11;;;;;;;;;;;;;;;22.32;38.58;95822.53;10423990;28;2660;-59
2023/10/16 16:28:12;;;;;;;;;;;;;;;22.30;38.91;95827.28;10425525;28;2683;-60
2023/10/16 16:33:12;;;;;;;;;;;;;;;22.31;38.65;95834.97;10426199;28;2632;-60
2023/10/16 16:38:12;;;;;;;;;;;;;;;22.29;38.97;95838.94;10422365;28;2651;-60
2023/10/16 16:43:13;;;;;;;;;;;;;;;22.30;38.95;95841.28;10423899;28;2552;-59
2023/10/16 16:48:14;;;;;;;;;;;;;;;22.30;38.75;95841.28;10427716;28;2583;-60
2023/10/16 16:53:14;;;;;;;;;;;;;;;22.32;38.71;95849.72;10423411;28;2598;-59
2023/10/16 16:58:14;;;;;;;;;;;;;;;22.28;38.72;95848.72;10424353;28;2595;-59
2023/10/16 17:03:15;;;;;;;;;;;;;;;22.40;38.49;95854.38;10424750;28;2750;-59
2023/10/16 17:08:16;;;;;;;;;;;;;;;22.53;38.36;95866.91;10425534;28;4668;-59
2023/10/16 17:13:18;;;;;;;;;;;;;;;22.66;38.27;95862.81;10434746;28;2746;-59
2023/10/16 17:18:18;;;;;;;;;;;;;;;22.79;37.89;95862.13;10433752;28;2650;-59
2023/10/16 17:23:18;;;;;;;;;;;;;;;22.80;38.01;95865.53;10431449;28;2619;-58
2023/10/16 17:28:19;;;;;;;;;;;;;;;22.80;37.72;95873.47;10439905;28;2556;-59
2023/10/16 17:33:20;;;;;;;;;;;;;;;22.78;37.76;95875.63;10443773;28;1963;-58
2023/10/16 17:38:20;;;;;;;;;;;;;;;22.79;38.04;95880.63;10444710;28;1512;-59
2023/10/16 17:43:23;;;;;;;;;;;;;;;22.78;38.48;95875.63;10441631;28;1966;-57
2023/10/16 17:48:25;;;;;;;;;;;;;;;22.76;38.72;95883.03;10446863;28;1906;-59
2023/10/16 17:53:25;;;;;;;;;;;;;;;22.76;38.98;95878.53;10443699;28;1487;-58
2023/10/16 17:58:27;;;;;;;;;;;;;;;22.74;38.85;95887.81;10444236;28;1869;-59
2023/10/16 18:03:27;;;;;;;;;;;;;;;22.71;39.08;95891.03;10441617;28;1606;-59
2023/10/16 18:08:28;;;;;;;;;;;;;;;22.67;39.07;95885.53;10443581;28;4672;-57
2023/10/16 18:13:32;;;;;;;;;;;;;;;22.65;39.57;95882.38;10427649;28;2733;-59
2023/10/16 18:18:33;;;;;;;;;;;;;;;22.65;39.46;95885.81;10441236;28;1955;-58
2023/10/16 18:23:33;;;;;;;;;;;;;;;22.60;39.52;95877.97;10446985;28;1970;-58
2023/10/16 18:28:33;;;;;;;;;;;;;;;22.56;39.65;95869.00;10443602;28;1985;-57
2023/10/16 18:33:34;;;;;;;;;;;;;;;22.53;39.61;95877.47;10438361;28;1508;-59
2023/10/16 18:38:34;;;;;;;;;;;;;;;22.50;39.28;95864.81;10444486;28;1442;-58
2023/10/16 18:43:34;;;;;;;;;;;;;;;22.48;39.35;95858.28;10439494;28;1732;-59
2023/10/16 18:48:36;;;;;;;;;;;;;;;22.50;39.14;95861.41;10441358;28;1985;-58
2023/10/16 18:53:37;;;;;;;;;;;;;;;22.43;39.38;95856.47;10442923;28;1722;-58
2023/10/16 18:58:38;;;;;;;;;;;;;;;22.44;39.23;95858.03;10446287;28;2772;-59
2023/10/16 19:03:39;;;;;;;;;;;;;;;22.38;39.55;95869.72;10437459;28;1495;-58
2023/10/16 19:08:40;;;;;;;;;;;;;;;22.45;38.90;95861.47;10437541;28;4637;-59
2023/10/16 19:13:41;;;;;;;;;;;;;;;22.42;39.51;95859.41;10437349;28;1519;-60
2023/10/16 19:18:42;;;;;;;;;;;;;;;22.40;39.17;95853.63;10437294;28;1519;-59
2023/10/16 19:23:42;;;;;;;;;;;;;;;22.39;39.20;95863.38;10442541;28;1504;-60
2023/10/16 19:28:48;;;;;;;;;;;;;;;22.41;39.04;95858.59;10442936;28;2598;-55
2023/10/16 19:33:48;;;;;;;;;;;;;;;22.35;38.86;95856.31;10430911;28;2630;-53
2023/10/16 19:38:51;;;;;;;;;;;;;;;22.34;39.10;95863.44;10411687;28;2719;-58
2023/10/16 19:43:52;;;;;;;;;;;;;;;22.31;38.96;95876.41;10435830;28;2597;-57
2023/10/16 19:48:54;;;;;;;;;;;;;;;22.30;39.02;95866.91;10420176;28;2594;-62
2023/10/16 19:54:00;;;;;;;;;;;;;;;22.28;39.07;95874.31;10423371;28;2658;-50
2023/10/16 19:59:00;;;;;;;;;;;;;;;22.24;38.80;95860.91;10423369;28;2676;-53
2023/10/16 20:04:00;;;;;;;;;;;;;;;22.24;38.88;95862.75;10425865;28;2669;-60
2023/10/16 20:09:01;;;;;;;;;;;;;;;22.24;38.74;95875.97;10427059;28;4649;-59
2023/10/16 20:14:01;;;;;;;;;;;;;;;22.22;38.43;95870.97;10426092;28;2528;-60
2023/10/16 20:19:07;;;;;;;;;;;;;;;22.22;38.51;95875.44;10426498;28;2614;-61
2023/10/16 20:24:07;;;;;;;;;;;;;;;22.23;38.65;95869.13;10426397;28;2599;-58
2023/10/16 20:29:08;;;;;;;;;;;;;;;22.20;38.51;95857.25;10425028;28;2621;-54
2023/10/16 20:34:11;;;;;;;;;;;;;;;22.13;38.28;95856.03;10423618;28;2560;-55
2023/10/16 20:39:11;;;;;;;;;;;;;;;22.07;38.47;95863.19;10432163;28;2631;-56
2023/10/16 20:44:12;;;;;;;;;;;;;;;22.01;38.61;95858.28;10424845;28;2685;-57
2023/10/16 20:49:12;;;;;;;;;;;;;;;21.96;38.73;95863.59;10424605;28;2652;-56
2023/10/16 20:54:12;;;;;;;;;;;;;;;21.90;38.55;95857.59;10423848;28;2575;-55
2023/10/16 20:59:13;;;;;;;;;;;;;;;21.85;38.52;95868.97;10422770;28;2537;-56
2023/10/16 21:04:15;;;;;;;;;;;;;;;21.82;38.27;95863.47;10422658;28;2606;-54
2023/10/16 21:09:18;;;;;;;;;;;;;;;21.78;38.14;95867.69;10422019;28;4637;-56
2023/10/16 21:14:18;;;;;;;;;;;;;;;21.73;38.33;95868.53;10421828;28;2789;-56
2023/10/16 21:19:19;;;;;;;;;;;;;;;21.70;38.24;95863.03;10426157;28;2552;-57
2023/10/16 21:24:19;;;;;;;;;;;;;;;21.67;38.46;95853.00;10425967;28;2614;-56
2023/10/16 21:29:19;;;;;;;;;;;;;;;21.64;38.39;95843.00;10430005;28;2723;-55
2023/10/16 21:34:19;;;;;;;;;;;;;;;21.61;38.20;95843.56;10426788;28;2759;-56
2023/10/16 21:39:20;;;;;;;;;;;;;;;21.59;38.13;95835.94;10431044;28;2624;-60
2023/10/16 21:44:23;;;;;;;;;;;;;;;21.58;38.12;95841.47;10430644;28;2584;-57
2023/10/16 21:49:25;;;;;;;;;;;;;;;21.55;38.41;95823.59;10422821;28;2605;-55
2023/10/16 21:54:25;;;;;;;;;;;;;;;21.54;38.30;95819.34;10425338;28;2662;-56
2023/10/16 21:59:26;;;;;;;;;;;;;;;21.53;38.46;95821.22;10433720;28;2644;-56
2023/10/16 22:04:26;;;;;;;;;;;;;;;21.51;37.99;95827.84;10431495;28;2627;-57
2023/10/16 22:09:29;;;;;;;;;;;;;;;21.50;38.33;95828.88;10435210;28;4586;-53
2023/10/16 22:14:29;;;;;;;;;;;;;;;21.47;38.26;95827.63;10432055;28;2574;-56
2023/10/16 22:19:29;;;;;;;;;;;;;;;21.46;38.15;95817.31;10428868;28;2957;-57
2023/10/16 22:24:30;;;;;;;;;;;;;;;21.44;38.07;95814.19;10431573;28;2582;-57
2023/10/16 22:29:30;;;;;;;;;;;;;;;21.41;38.01;95804.19;10433801;28;2575;-57
2023/10/16 22:34:30;;;;;;;;;;;;;;;21.39;38.01;95793.13;10428684;28;2560;-54
2023/10/16 22:39:32;;;;;;;;;;;;;;;21.37;38.19;95796.03;10431603;28;2617;-56
2023/10/16 22:44:32;;;;;;;;;;;;;;;21.36;38.41;95798.94;10429217;28;2699;-56
2023/10/16 22:49:33;;;;;;;;;;;;;;;21.34;38.22;95782.63;10421330;28;2618;-56
2023/10/16 22:54:33;;;;;;;;;;;;;;;21.32;38.35;95787.38;10429817;28;2610;-56
2023/10/16 22:59:34;;;;;;;;;;;;;;;21.30;38.33;95784.25;10430825;28;2615;-55
2023/10/16 23:04:40;;;;;;;;;;;;;;;21.30;38.27;95786.88;10430169;28;2652;-56
2023/10/16 23:09:43;;;;;;;;;;;;;;;21.30;38.26;95797.44;10431046;28;4654;-54
2023/10/16 23:14:43;;;;;;;;;;;;;;;21.26;38.17;95797.19;10430282;28;2593;-50
2023/10/16 23:19:44;;;;;;;;;;;;;;;21.25;38.30;95798.25;10431234;28;2643;-55
2023/10/16 23:24:44;;;;;;;;;;;;;;;21.24;38.25;95793.25;10430100;28;2578;-55
2023/10/16 23:29:45;;;;;;;;;;;;;;;21.22;38.40;95790.13;10431187;28;3051;-57
2023/10/16 23:34:47;;;;;;;;;;;;;;;21.20;38.62;95765.88;10428089;28;2556;-56
2023/10/16 23:39:48;;;;;;;;;;;;;;;21.18;38.04;95766.16;10428756;28;2692;-56
2023/10/16 23:44:49;;;;;;;;;;;;;;;21.18;38.22;95768.00;10432282;28;2956;-56
2023/10/16 23:49:50;;;;;;;;;;;;;;;21.17;38.15;95774.31;10436547;28;2602;-56
2023/10/16 23:55:06;;;;;;;;;;;;;;;21.15;38.27;95755.38;10439875;28;1985;-56
